sensor_id;sensor_type;location;lat;lon;timestamp;temperature;humidity
1700;DHT22;847;48.058;7.810;2022-12-20T00:01:39;4.20;99.00
1700;DHT22;847;48.058;7.810;2022-12-20T00:04:05;4.40;99.00
1700;DHT22;847;48.058;7.810;2022-12-20T00:06:33;4.50;99.00
1700;DHT22;847;48.058;7.810;2022-12-20T00:09:03;4.10;99.00
1700;DHT22;847;48.058;7.810;2022-12-20T00:11:30;3.80;99.00
1700;DHT22;847;48.058;7.810;2022-12-20T00:13:57;3.80;99.00
1700;DHT22;847;48.058;7.810;2022-12-20T00:16:25;3.70;99.00
1700;DHT22;847;48.058;7.810;2022-12-20T00:18:56;3.70;99.00
1700;DHT22;847;48.058;7.810;2022-12-20T00:21:23;3.70;99.00
1700;DHT22;847;48.058;7.810;2022-12-20T00:23:51;3.80;99.00
1700;DHT22;847;48.058;7.810;2022-12-20T00:26:20;3.90;99.00
1700;DHT22;847;48.058;7.810;2022-12-20T00:28:48;3.90;99.00
1700;DHT22;847;48.058;7.810;2022-12-20T00:31:17;4.00;99.00
1700;DHT22;847;48.058;7.810;2022-12-20T00:33:45;4.00;99.00
1700;DHT22;847;48.058;7.810;2022-12-20T00:36:15;4.10;99.00
1700;DHT22;847;48.058;7.810;2022-12-20T00:38:44;4.20;99.00
1700;DHT22;847;48.058;7.810;2022-12-20T00:41:13;4.30;99.00
1700;DHT22;847;48.058;7.810;2022-12-20T00:43:40;4.40;99.00
1700;DHT22;847;48.058;7.810;2022-12-20T00:46:08;4.60;99.00
1700;DHT22;847;48.058;7.810;2022-12-20T00:48:36;4.70;99.00
1700;DHT22;847;48.058;7.810;2022-12-20T00:51:04;4.70;99.00
1700;DHT22;847;48.058;7.810;2022-12-20T00:53:33;4.70;99.00
1700;DHT22;847;48.058;7.810;2022-12-20T00:56:00;4.60;99.00
1700;DHT22;847;48.058;7.810;2022-12-20T00:58:27;4.70;99.00
1700;DHT22;847;48.058;7.810;2022-12-20T01:00:54;4.80;99.00
1700;DHT22;847;48.058;7.810;2022-12-20T01:03:21;4.90;99.00
1700;DHT22;847;48.058;7.810;2022-12-20T01:05:50;4.90;99.00
1700;DHT22;847;48.058;7.810;2022-12-20T01:08:17;5.00;99.00
1700;DHT22;847;48.058;7.810;2022-12-20T01:10:45;5.00;99.00
1700;DHT22;847;48.058;7.810;2022-12-20T01:13:12;5.10;99.00
1700;DHT22;847;48.058;7.810;2022-12-20T01:15:39;5.30;99.00
1700;DHT22;847;48.058;7.810;2022-12-20T01:18:06;5.30;99.00
1700;DHT22;847;48.058;7.810;2022-12-20T01:20:33;5.30;99.00
1700;DHT22;847;48.058;7.810;2022-12-20T01:23:00;5.30;99.00
1700;DHT22;847;48.058;7.810;2022-12-20T01:25:27;5.30;99.00
1700;DHT22;847;48.058;7.810;2022-12-20T01:27:55;5.30;99.00
1700;DHT22;847;48.058;7.810;2022-12-20T01:30:21;5.20;99.00
1700;DHT22;847;48.058;7.810;2022-12-20T01:32:48;5.20;99.00
1700;DHT22;847;48.058;7.810;2022-12-20T01:35:15;5.30;99.00
1700;DHT22;847;48.058;7.810;2022-12-20T01:37:42;5.30;99.00
1700;DHT22;847;48.058;7.810;2022-12-20T01:40:10;5.10;99.00
1700;DHT22;847;48.058;7.810;2022-12-20T01:42:37;5.00;99.00
1700;DHT22;847;48.058;7.810;2022-12-20T01:45:10;4.80;99.00
1700;DHT22;847;48.058;7.810;2022-12-20T01:47:38;4.70;99.00
1700;DHT22;847;48.058;7.810;2022-12-20T01:50:07;4.60;99.00
1700;DHT22;847;48.058;7.810;2022-12-20T01:52:36;4.60;99.00
1700;DHT22;847;48.058;7.810;2022-12-20T01:55:08;4.60;99.00
1700;DHT22;847;48.058;7.810;2022-12-20T01:57:40;4.70;99.00
1700;DHT22;847;48.058;7.810;2022-12-20T02:00:11;4.70;99.00
1700;DHT22;847;48.058;7.810;2022-12-20T02:02:39;4.70;99.00
1700;DHT22;847;48.058;7.810;2022-12-20T02:05:06;4.70;99.00
1700;DHT22;847;48.058;7.810;2022-12-20T02:07:34;4.70;99.00
1700;DHT22;847;48.058;7.810;2022-12-20T02:10:03;4.70;99.00
1700;DHT22;847;48.058;7.810;2022-12-20T02:12:36;4.60;99.00
1700;DHT22;847;48.058;7.810;2022-12-20T02:15:16;4.60;99.00
1700;DHT22;847;48.058;7.810;2022-12-20T02:17:55;4.50;99.00
1700;DHT22;847;48.058;7.810;2022-12-20T02:20:50;4.60;99.00
1700;DHT22;847;48.058;7.810;2022-12-20T02:23:43;4.60;99.00
1700;DHT22;847;48.058;7.810;2022-12-20T02:29:22;4.60;99.00
1700;DHT22;847;48.058;7.810;2022-12-20T02:31:56;4.60;99.00
1700;DHT22;847;48.058;7.810;2022-12-20T02:34:25;4.60;99.00
1700;DHT22;847;48.058;7.810;2022-12-20T02:36:52;4.60;99.00
1700;DHT22;847;48.058;7.810;2022-12-20T02:39:20;4.60;99.00
1700;DHT22;847;48.058;7.810;2022-12-20T02:41:51;4.60;99.00
1700;DHT22;847;48.058;7.810;2022-12-20T02:44:21;4.60;99.00
1700;DHT22;847;48.058;7.810;2022-12-20T02:47:11;4.60;99.00
1700;DHT22;847;48.058;7.810;2022-12-20T02:49:39;4.50;99.00
1700;DHT22;847;48.058;7.810;2022-12-20T02:52:09;4.40;99.00
1700;DHT22;847;48.058;7.810;2022-12-20T02:54:37;4.30;99.00
1700;DHT22;847;48.058;7.810;2022-12-20T02:57:08;4.20;99.00
1700;DHT22;847;48.058;7.810;2022-12-20T02:59:41;4.20;99.00
1700;DHT22;847;48.058;7.810;2022-12-20T03:02:12;4.30;99.00
1700;DHT22;847;48.058;7.810;2022-12-20T03:04:40;4.30;99.00
1700;DHT22;847;48.058;7.810;2022-12-20T03:07:10;4.30;99.00
1700;DHT22;847;48.058;7.810;2022-12-20T03:09:38;4.30;99.00
1700;DHT22;847;48.058;7.810;2022-12-20T03:12:06;4.30;99.00
1700;DHT22;847;48.058;7.810;2022-12-20T03:14:33;4.30;99.00
1700;DHT22;847;48.058;7.810;2022-12-20T03:16:59;4.40;99.00
1700;DHT22;847;48.058;7.810;2022-12-20T03:19:28;4.40;99.00
1700;DHT22;847;48.058;7.810;2022-12-20T03:21:55;4.40;99.00
1700;DHT22;847;48.058;7.810;2022-12-20T03:24:22;4.40;99.00
1700;DHT22;847;48.058;7.810;2022-12-20T03:26:49;4.40;99.00
1700;DHT22;847;48.058;7.810;2022-12-20T03:29:15;4.40;99.00
1700;DHT22;847;48.058;7.810;2022-12-20T03:31:42;4.40;99.00
1700;DHT22;847;48.058;7.810;2022-12-20T03:34:09;4.40;99.00
1700;DHT22;847;48.058;7.810;2022-12-20T03:36:37;4.40;99.00
1700;DHT22;847;48.058;7.810;2022-12-20T03:39:04;4.40;99.00
1700;DHT22;847;48.058;7.810;2022-12-20T03:41:30;4.50;99.00
1700;DHT22;847;48.058;7.810;2022-12-20T03:43:57;4.50;99.00
1700;DHT22;847;48.058;7.810;2022-12-20T03:46:24;4.50;99.00
1700;DHT22;847;48.058;7.810;2022-12-20T03:48:52;4.40;99.00
1700;DHT22;847;48.058;7.810;2022-12-20T03:51:19;4.40;99.00
1700;DHT22;847;48.058;7.810;2022-12-20T03:53:47;4.30;99.00
1700;DHT22;847;48.058;7.810;2022-12-20T03:56:14;4.30;99.00
1700;DHT22;847;48.058;7.810;2022-12-20T03:58:40;4.30;99.00
1700;DHT22;847;48.058;7.810;2022-12-20T04:01:18;4.30;99.00
1700;DHT22;847;48.058;7.810;2022-12-20T04:03:46;4.30;99.00
1700;DHT22;847;48.058;7.810;2022-12-20T04:06:13;4.30;99.00
1700;DHT22;847;48.058;7.810;2022-12-20T04:08:40;4.30;99.00
1700;DHT22;847;48.058;7.810;2022-12-20T04:11:08;4.40;99.00
1700;DHT22;847;48.058;7.810;2022-12-20T04:13:43;4.30;99.00
1700;DHT22;847;48.058;7.810;2022-12-20T04:16:11;4.30;99.00
1700;DHT22;847;48.058;7.810;2022-12-20T04:18:38;4.30;99.00
1700;DHT22;847;48.058;7.810;2022-12-20T04:21:05;4.30;99.00
1700;DHT22;847;48.058;7.810;2022-12-20T04:23:33;4.40;99.00
1700;DHT22;847;48.058;7.810;2022-12-20T04:26:00;4.40;99.00
1700;DHT22;847;48.058;7.810;2022-12-20T04:28:29;4.30;99.00
1700;DHT22;847;48.058;7.810;2022-12-20T04:30:56;4.30;99.00
1700;DHT22;847;48.058;7.810;2022-12-20T04:33:24;4.40;99.00
1700;DHT22;847;48.058;7.810;2022-12-20T04:35:51;4.30;99.00
1700;DHT22;847;48.058;7.810;2022-12-20T04:38:18;4.30;99.00
1700;DHT22;847;48.058;7.810;2022-12-20T04:40:48;4.40;99.00
1700;DHT22;847;48.058;7.810;2022-12-20T04:43:15;4.40;99.00
1700;DHT22;847;48.058;7.810;2022-12-20T04:45:43;4.40;99.00
1700;DHT22;847;48.058;7.810;2022-12-20T04:48:10;4.40;99.00
1700;DHT22;847;48.058;7.810;2022-12-20T04:50:37;4.40;99.00
1700;DHT22;847;48.058;7.810;2022-12-20T04:53:04;4.50;99.00
1700;DHT22;847;48.058;7.810;2022-12-20T04:55:49;4.50;99.00
1700;DHT22;847;48.058;7.810;2022-12-20T04:58:16;4.40;99.00
1700;DHT22;847;48.058;7.810;2022-12-20T05:00:44;4.40;99.00
1700;DHT22;847;48.058;7.810;2022-12-20T05:03:11;4.40;99.00
1700;DHT22;847;48.058;7.810;2022-12-20T05:05:38;4.40;99.00
1700;DHT22;847;48.058;7.810;2022-12-20T05:08:04;4.40;99.00
1700;DHT22;847;48.058;7.810;2022-12-20T05:10:31;4.50;99.00
1700;DHT22;847;48.058;7.810;2022-12-20T05:12:58;4.40;99.00
1700;DHT22;847;48.058;7.810;2022-12-20T05:15:25;4.40;99.00
1700;DHT22;847;48.058;7.810;2022-12-20T05:17:53;4.40;99.00
1700;DHT22;847;48.058;7.810;2022-12-20T05:20:24;4.40;99.00
1700;DHT22;847;48.058;7.810;2022-12-20T05:22:51;4.40;99.00
1700;DHT22;847;48.058;7.810;2022-12-20T05:25:37;4.40;99.00
1700;DHT22;847;48.058;7.810;2022-12-20T05:28:21;4.40;99.00
1700;DHT22;847;48.058;7.810;2022-12-20T05:30:48;4.40;99.00
1700;DHT22;847;48.058;7.810;2022-12-20T05:33:16;4.30;99.00
1700;DHT22;847;48.058;7.810;2022-12-20T05:35:43;4.30;99.00
1700;DHT22;847;48.058;7.810;2022-12-20T05:38:10;4.30;99.00
1700;DHT22;847;48.058;7.810;2022-12-20T05:40:37;4.40;99.00
1700;DHT22;847;48.058;7.810;2022-12-20T05:43:04;4.40;99.00
1700;DHT22;847;48.058;7.810;2022-12-20T05:45:31;4.40;99.00
1700;DHT22;847;48.058;7.810;2022-12-20T05:47:58;4.40;99.00
1700;DHT22;847;48.058;7.810;2022-12-20T05:50:26;4.50;99.00
1700;DHT22;847;48.058;7.810;2022-12-20T05:52:53;4.50;99.00
1700;DHT22;847;48.058;7.810;2022-12-20T05:55:20;4.50;99.00
1700;DHT22;847;48.058;7.810;2022-12-20T05:57:47;4.50;99.00
1700;DHT22;847;48.058;7.810;2022-12-20T06:00:14;4.60;99.00
1700;DHT22;847;48.058;7.810;2022-12-20T06:02:41;4.60;99.00
1700;DHT22;847;48.058;7.810;2022-12-20T06:05:08;4.60;99.00
1700;DHT22;847;48.058;7.810;2022-12-20T06:07:40;4.50;99.00
1700;DHT22;847;48.058;7.810;2022-12-20T06:10:08;4.50;99.00
1700;DHT22;847;48.058;7.810;2022-12-20T06:12:35;4.50;99.00
1700;DHT22;847;48.058;7.810;2022-12-20T06:15:02;4.60;99.00
1700;DHT22;847;48.058;7.810;2022-12-20T06:17:29;4.60;99.00
1700;DHT22;847;48.058;7.810;2022-12-20T06:19:56;4.60;99.00
1700;DHT22;847;48.058;7.810;2022-12-20T06:22:23;4.60;99.00
1700;DHT22;847;48.058;7.810;2022-12-20T06:24:51;4.60;99.00
1700;DHT22;847;48.058;7.810;2022-12-20T06:27:17;4.50;99.00
1700;DHT22;847;48.058;7.810;2022-12-20T06:29:46;4.50;99.00
1700;DHT22;847;48.058;7.810;2022-12-20T06:32:16;4.50;99.00
1700;DHT22;847;48.058;7.810;2022-12-20T06:34:43;4.50;99.00
1700;DHT22;847;48.058;7.810;2022-12-20T06:37:10;4.60;99.00
1700;DHT22;847;48.058;7.810;2022-12-20T06:39:37;4.60;99.00
1700;DHT22;847;48.058;7.810;2022-12-20T06:42:05;4.50;99.00
1700;DHT22;847;48.058;7.810;2022-12-20T06:44:32;4.60;99.00
1700;DHT22;847;48.058;7.810;2022-12-20T06:46:59;4.60;99.00
1700;DHT22;847;48.058;7.810;2022-12-20T06:49:25;4.50;99.00
1700;DHT22;847;48.058;7.810;2022-12-20T06:51:52;4.50;99.00
1700;DHT22;847;48.058;7.810;2022-12-20T06:54:19;4.60;99.00
1700;DHT22;847;48.058;7.810;2022-12-20T06:56:46;4.50;99.00
1700;DHT22;847;48.058;7.810;2022-12-20T06:59:14;4.50;99.00
1700;DHT22;847;48.058;7.810;2022-12-20T07:01:41;4.60;99.00
1700;DHT22;847;48.058;7.810;2022-12-20T07:04:07;4.60;99.00
1700;DHT22;847;48.058;7.810;2022-12-20T07:06:34;4.60;99.00
1700;DHT22;847;48.058;7.810;2022-12-20T07:09:01;4.60;99.00
1700;DHT22;847;48.058;7.810;2022-12-20T07:11:28;4.60;99.00
1700;DHT22;847;48.058;7.810;2022-12-20T07:13:55;4.60;99.00
1700;DHT22;847;48.058;7.810;2022-12-20T07:16:24;4.60;99.00
1700;DHT22;847;48.058;7.810;2022-12-20T07:18:52;4.60;99.00
1700;DHT22;847;48.058;7.810;2022-12-20T07:21:20;4.60;99.00
1700;DHT22;847;48.058;7.810;2022-12-20T07:23:47;4.50;99.00
1700;DHT22;847;48.058;7.810;2022-12-20T07:26:14;4.50;99.00
1700;DHT22;847;48.058;7.810;2022-12-20T07:28:42;4.50;99.00
1700;DHT22;847;48.058;7.810;2022-12-20T07:31:09;4.60;99.00
1700;DHT22;847;48.058;7.810;2022-12-20T07:33:38;4.60;99.00
1700;DHT22;847;48.058;7.810;2022-12-20T07:36:07;4.60;99.00
1700;DHT22;847;48.058;7.810;2022-12-20T07:38:34;4.60;99.00
1700;DHT22;847;48.058;7.810;2022-12-20T07:41:05;4.60;99.00
1700;DHT22;847;48.058;7.810;2022-12-20T07:43:32;4.70;99.00
1700;DHT22;847;48.058;7.810;2022-12-20T07:46:00;4.70;99.00
1700;DHT22;847;48.058;7.810;2022-12-20T07:48:27;4.70;99.00
1700;DHT22;847;48.058;7.810;2022-12-20T07:50:58;4.70;99.00
1700;DHT22;847;48.058;7.810;2022-12-20T07:53:27;4.70;99.00
1700;DHT22;847;48.058;7.810;2022-12-20T07:55:54;4.70;99.00
1700;DHT22;847;48.058;7.810;2022-12-20T07:58:22;4.80;99.00
1700;DHT22;847;48.058;7.810;2022-12-20T08:00:49;4.70;99.00
1700;DHT22;847;48.058;7.810;2022-12-20T08:03:18;4.80;99.00
1700;DHT22;847;48.058;7.810;2022-12-20T08:05:49;4.80;99.00
1700;DHT22;847;48.058;7.810;2022-12-20T08:08:19;4.80;99.00
1700;DHT22;847;48.058;7.810;2022-12-20T08:10:47;4.90;99.00
1700;DHT22;847;48.058;7.810;2022-12-20T08:13:14;4.90;99.00
1700;DHT22;847;48.058;7.810;2022-12-20T08:15:41;4.80;99.00
1700;DHT22;847;48.058;7.810;2022-12-20T08:18:08;4.90;99.00
1700;DHT22;847;48.058;7.810;2022-12-20T08:20:35;4.90;99.00
1700;DHT22;847;48.058;7.810;2022-12-20T08:23:02;5.10;99.00
1700;DHT22;847;48.058;7.810;2022-12-20T08:25:30;5.10;99.00
1700;DHT22;847;48.058;7.810;2022-12-20T08:27:59;5.20;99.00
1700;DHT22;847;48.058;7.810;2022-12-20T08:30:26;5.30;99.00
1700;DHT22;847;48.058;7.810;2022-12-20T08:32:54;5.30;99.00
1700;DHT22;847;48.058;7.810;2022-12-20T08:35:21;5.30;99.00
1700;DHT22;847;48.058;7.810;2022-12-20T08:37:50;5.40;99.00
1700;DHT22;847;48.058;7.810;2022-12-20T08:40:17;5.40;99.00
1700;DHT22;847;48.058;7.810;2022-12-20T08:42:45;5.50;99.00
1700;DHT22;847;48.058;7.810;2022-12-20T08:45:12;5.60;99.00
1700;DHT22;847;48.058;7.810;2022-12-20T08:47:39;5.60;99.00
1700;DHT22;847;48.058;7.810;2022-12-20T08:50:06;5.70;99.00
1700;DHT22;847;48.058;7.810;2022-12-20T08:52:33;5.70;99.00
1700;DHT22;847;48.058;7.810;2022-12-20T08:55:00;5.70;99.00
1700;DHT22;847;48.058;7.810;2022-12-20T08:57:27;5.80;99.00
1700;DHT22;847;48.058;7.810;2022-12-20T08:59:55;5.80;99.00
1700;DHT22;847;48.058;7.810;2022-12-20T09:02:21;5.90;99.00
1700;DHT22;847;48.058;7.810;2022-12-20T09:04:48;6.10;99.00
1700;DHT22;847;48.058;7.810;2022-12-20T09:07:15;6.30;99.00
1700;DHT22;847;48.058;7.810;2022-12-20T09:09:42;6.40;99.00
1700;DHT22;847;48.058;7.810;2022-12-20T09:12:08;6.50;99.00
1700;DHT22;847;48.058;7.810;2022-12-20T09:14:36;6.60;99.00
1700;DHT22;847;48.058;7.810;2022-12-20T09:17:04;6.60;99.00
1700;DHT22;847;48.058;7.810;2022-12-20T09:19:31;6.70;99.00
1700;DHT22;847;48.058;7.810;2022-12-20T09:21:58;6.70;99.00
1700;DHT22;847;48.058;7.810;2022-12-20T09:24:25;6.70;99.00
1700;DHT22;847;48.058;7.810;2022-12-20T09:26:51;6.70;99.00
1700;DHT22;847;48.058;7.810;2022-12-20T09:29:18;6.70;99.00
1700;DHT22;847;48.058;7.810;2022-12-20T09:31:45;6.70;99.00
1700;DHT22;847;48.058;7.810;2022-12-20T09:34:15;6.70;99.00
1700;DHT22;847;48.058;7.810;2022-12-20T09:36:42;6.70;99.00
1700;DHT22;847;48.058;7.810;2022-12-20T09:39:10;6.80;99.00
1700;DHT22;847;48.058;7.810;2022-12-20T09:41:38;6.80;99.00
1700;DHT22;847;48.058;7.810;2022-12-20T09:44:13;6.80;99.00
1700;DHT22;847;48.058;7.810;2022-12-20T09:46:41;7.10;99.00
1700;DHT22;847;48.058;7.810;2022-12-20T09:49:11;7.70;99.00
1700;DHT22;847;48.058;7.810;2022-12-20T09:52:06;8.40;99.00
1700;DHT22;847;48.058;7.810;2022-12-20T09:54:43;8.90;99.00
1700;DHT22;847;48.058;7.810;2022-12-20T09:57:18;9.40;99.00
1700;DHT22;847;48.058;7.810;2022-12-20T09:59:49;9.70;99.00
1700;DHT22;847;48.058;7.810;2022-12-20T10:02:20;9.80;99.00
1700;DHT22;847;48.058;7.810;2022-12-20T10:04:48;9.80;99.00
1700;DHT22;847;48.058;7.810;2022-12-20T10:07:26;10.00;99.00
1700;DHT22;847;48.058;7.810;2022-12-20T10:12:48;10.20;99.00
1700;DHT22;847;48.058;7.810;2022-12-20T10:15:22;10.20;99.00
1700;DHT22;847;48.058;7.810;2022-12-20T10:18:02;10.30;99.00
1700;DHT22;847;48.058;7.810;2022-12-20T10:20:42;10.10;99.00
1700;DHT22;847;48.058;7.810;2022-12-20T10:23:16;9.60;99.00
1700;DHT22;847;48.058;7.810;2022-12-20T10:25:49;9.10;99.00
1700;DHT22;847;48.058;7.810;2022-12-20T10:28:16;8.80;99.00
1700;DHT22;847;48.058;7.810;2022-12-20T10:30:45;8.50;99.00
1700;DHT22;847;48.058;7.810;2022-12-20T10:33:16;8.30;99.00
1700;DHT22;847;48.058;7.810;2022-12-20T10:35:44;8.20;99.00
1700;DHT22;847;48.058;7.810;2022-12-20T10:38:13;8.00;99.00
1700;DHT22;847;48.058;7.810;2022-12-20T10:40:44;8.00;99.00
1700;DHT22;847;48.058;7.810;2022-12-20T10:43:15;7.90;99.00
1700;DHT22;847;48.058;7.810;2022-12-20T10:45:43;7.80;99.00
1700;DHT22;847;48.058;7.810;2022-12-20T10:48:25;7.90;99.00
1700;DHT22;847;48.058;7.810;2022-12-20T10:50:55;7.90;99.00
1700;DHT22;847;48.058;7.810;2022-12-20T10:53:24;7.90;99.00
1700;DHT22;847;48.058;7.810;2022-12-20T10:55:52;7.90;99.00
1700;DHT22;847;48.058;7.810;2022-12-20T10:58:28;7.90;99.00
1700;DHT22;847;48.058;7.810;2022-12-20T11:01:04;7.90;99.00
1700;DHT22;847;48.058;7.810;2022-12-20T11:03:32;7.90;99.00
1700;DHT22;847;48.058;7.810;2022-12-20T11:06:00;8.00;99.00
1700;DHT22;847;48.058;7.810;2022-12-20T11:08:31;8.10;99.00
1700;DHT22;847;48.058;7.810;2022-12-20T11:11:17;8.20;99.00
1700;DHT22;847;48.058;7.810;2022-12-20T11:13:45;8.20;99.00
1700;DHT22;847;48.058;7.810;2022-12-20T11:16:25;8.30;99.00
1700;DHT22;847;48.058;7.810;2022-12-20T11:19:21;8.40;99.00
1700;DHT22;847;48.058;7.810;2022-12-20T11:22:00;8.50;99.00
1700;DHT22;847;48.058;7.810;2022-12-20T11:24:37;8.60;99.00
1700;DHT22;847;48.058;7.810;2022-12-20T11:27:15;8.70;99.00
1700;DHT22;847;48.058;7.810;2022-12-20T11:30:11;8.80;99.00
1700;DHT22;847;48.058;7.810;2022-12-20T11:35:52;8.90;99.00
1700;DHT22;847;48.058;7.810;2022-12-20T11:38:33;8.90;99.00
1700;DHT22;847;48.058;7.810;2022-12-20T11:41:11;9.00;99.00
1700;DHT22;847;48.058;7.810;2022-12-20T11:43:49;9.10;99.00
1700;DHT22;847;48.058;7.810;2022-12-20T11:46:29;9.20;99.00
1700;DHT22;847;48.058;7.810;2022-12-20T11:52:00;9.20;99.00
1700;DHT22;847;48.058;7.810;2022-12-20T11:54:31;9.10;99.00
1700;DHT22;847;48.058;7.810;2022-12-20T11:57:06;9.10;99.00
1700;DHT22;847;48.058;7.810;2022-12-20T11:59:41;9.10;99.00
1700;DHT22;847;48.058;7.810;2022-12-20T12:02:12;9.10;99.00
1700;DHT22;847;48.058;7.810;2022-12-20T12:04:42;9.20;99.00
1700;DHT22;847;48.058;7.810;2022-12-20T12:07:14;9.20;99.00
1700;DHT22;847;48.058;7.810;2022-12-20T12:09:50;9.20;99.00
1700;DHT22;847;48.058;7.810;2022-12-20T12:12:26;9.20;99.00
1700;DHT22;847;48.058;7.810;2022-12-20T12:14:59;9.30;99.00
1700;DHT22;847;48.058;7.810;2022-12-20T12:17:34;9.30;99.00
1700;DHT22;847;48.058;7.810;2022-12-20T12:20:17;9.40;99.00
1700;DHT22;847;48.058;7.810;2022-12-20T12:22:53;9.40;99.00
1700;DHT22;847;48.058;7.810;2022-12-20T12:25:23;9.50;99.00
1700;DHT22;847;48.058;7.810;2022-12-20T12:27:52;9.50;99.00
1700;DHT22;847;48.058;7.810;2022-12-20T12:30:19;9.60;99.00
1700;DHT22;847;48.058;7.810;2022-12-20T12:32:52;9.80;99.00
1700;DHT22;847;48.058;7.810;2022-12-20T12:38:35;10.00;99.00
1700;DHT22;847;48.058;7.810;2022-12-20T12:41:33;10.00;99.00
1700;DHT22;847;48.058;7.810;2022-12-20T12:44:29;10.10;99.00
1700;DHT22;847;48.058;7.810;2022-12-20T12:47:01;10.20;99.00
1700;DHT22;847;48.058;7.810;2022-12-20T12:49:31;10.20;99.00
1700;DHT22;847;48.058;7.810;2022-12-20T12:52:00;10.40;99.00
1700;DHT22;847;48.058;7.810;2022-12-20T12:54:35;10.40;99.00
1700;DHT22;847;48.058;7.810;2022-12-20T12:57:13;10.50;99.00
1700;DHT22;847;48.058;7.810;2022-12-20T12:59:50;10.60;99.00
1700;DHT22;847;48.058;7.810;2022-12-20T13:02:34;10.60;99.00
1700;DHT22;847;48.058;7.810;2022-12-20T13:05:30;10.70;98.90
1700;DHT22;847;48.058;7.810;2022-12-20T13:07:58;10.70;98.70
1700;DHT22;847;48.058;7.810;2022-12-20T13:10:56;10.90;97.90
1700;DHT22;847;48.058;7.810;2022-12-20T13:13:25;10.90;97.20
1700;DHT22;847;48.058;7.810;2022-12-20T13:16:26;11.00;96.00
1700;DHT22;847;48.058;7.810;2022-12-20T13:19:13;11.20;95.30
1700;DHT22;847;48.058;7.810;2022-12-20T13:21:44;11.20;95.20
1700;DHT22;847;48.058;7.810;2022-12-20T13:24:37;11.30;95.60
1700;DHT22;847;48.058;7.810;2022-12-20T13:27:32;11.30;94.70
1700;DHT22;847;48.058;7.810;2022-12-20T13:30:23;11.30;95.10
1700;DHT22;847;48.058;7.810;2022-12-20T13:38:53;11.20;94.50
1700;DHT22;847;48.058;7.810;2022-12-20T13:41:34;11.20;95.00
1700;DHT22;847;48.058;7.810;2022-12-20T13:44:18;11.20;94.50
1700;DHT22;847;48.058;7.810;2022-12-20T13:46:53;11.20;94.50
1700;DHT22;847;48.058;7.810;2022-12-20T13:49:25;11.20;95.20
1700;DHT22;847;48.058;7.810;2022-12-20T13:52:12;11.20;94.80
1700;DHT22;847;48.058;7.810;2022-12-20T13:54:49;11.10;94.60
1700;DHT22;847;48.058;7.810;2022-12-20T13:57:26;11.60;98.70
1700;DHT22;847;48.058;7.810;2022-12-20T14:03:20;12.80;94.80
1700;DHT22;847;48.058;7.810;2022-12-20T14:05:51;13.10;90.90
1700;DHT22;847;48.058;7.810;2022-12-20T14:08:20;13.40;89.80
1700;DHT22;847;48.058;7.810;2022-12-20T14:10:48;13.60;88.10
1700;DHT22;847;48.058;7.810;2022-12-20T14:13:20;13.90;88.60
1700;DHT22;847;48.058;7.810;2022-12-20T14:15:47;14.10;86.90
1700;DHT22;847;48.058;7.810;2022-12-20T14:18:17;14.20;87.30
1700;DHT22;847;48.058;7.810;2022-12-20T14:20:45;14.30;85.30
1700;DHT22;847;48.058;7.810;2022-12-20T14:23:16;14.40;84.80
1700;DHT22;847;48.058;7.810;2022-12-20T14:25:47;14.30;83.90
1700;DHT22;847;48.058;7.810;2022-12-20T14:28:21;14.30;84.80
1700;DHT22;847;48.058;7.810;2022-12-20T14:30:51;14.30;84.40
1700;DHT22;847;48.058;7.810;2022-12-20T14:33:19;14.20;83.90
1700;DHT22;847;48.058;7.810;2022-12-20T14:35:50;14.40;85.40
1700;DHT22;847;48.058;7.810;2022-12-20T14:38:23;14.40;84.00
1700;DHT22;847;48.058;7.810;2022-12-20T14:40:50;14.40;83.40
1700;DHT22;847;48.058;7.810;2022-12-20T14:43:26;14.30;84.60
1700;DHT22;847;48.058;7.810;2022-12-20T14:46:16;14.30;83.80
1700;DHT22;847;48.058;7.810;2022-12-20T14:48:44;14.30;83.50
1700;DHT22;847;48.058;7.810;2022-12-20T14:51:18;14.10;82.90
1700;DHT22;847;48.058;7.810;2022-12-20T14:53:48;14.10;83.70
1700;DHT22;847;48.058;7.810;2022-12-20T14:56:18;14.00;83.20
1700;DHT22;847;48.058;7.810;2022-12-20T14:59:04;14.10;82.70
1700;DHT22;847;48.058;7.810;2022-12-20T15:01:32;14.10;84.00
1700;DHT22;847;48.058;7.810;2022-12-20T15:03:59;14.10;82.80
1700;DHT22;847;48.058;7.810;2022-12-20T15:06:31;14.10;82.40
1700;DHT22;847;48.058;7.810;2022-12-20T15:09:01;14.10;82.80
1700;DHT22;847;48.058;7.810;2022-12-20T15:11:30;14.00;84.10
1700;DHT22;847;48.058;7.810;2022-12-20T15:13:57;14.00;85.00
1700;DHT22;847;48.058;7.810;2022-12-20T15:16:27;14.30;85.10
1700;DHT22;847;48.058;7.810;2022-12-20T15:18:55;14.20;84.70
1700;DHT22;847;48.058;7.810;2022-12-20T15:21:27;14.30;85.90
1700;DHT22;847;48.058;7.810;2022-12-20T15:23:56;14.30;84.50
1700;DHT22;847;48.058;7.810;2022-12-20T15:26:26;14.20;84.50
1700;DHT22;847;48.058;7.810;2022-12-20T15:28:53;14.30;85.10
1700;DHT22;847;48.058;7.810;2022-12-20T15:31:31;14.30;85.60
1700;DHT22;847;48.058;7.810;2022-12-20T15:33:58;14.40;84.30
1700;DHT22;847;48.058;7.810;2022-12-20T15:36:28;14.40;84.70
1700;DHT22;847;48.058;7.810;2022-12-20T15:38:56;14.30;84.50
1700;DHT22;847;48.058;7.810;2022-12-20T15:41:27;14.30;85.00
1700;DHT22;847;48.058;7.810;2022-12-20T15:43:57;14.30;84.30
1700;DHT22;847;48.058;7.810;2022-12-20T15:46:27;14.50;83.50
1700;DHT22;847;48.058;7.810;2022-12-20T15:48:54;14.40;82.10
1700;DHT22;847;48.058;7.810;2022-12-20T15:51:25;14.30;82.90
1700;DHT22;847;48.058;7.810;2022-12-20T15:53:53;14.10;82.20
1700;DHT22;847;48.058;7.810;2022-12-20T15:56:24;14.10;83.20
1700;DHT22;847;48.058;7.810;2022-12-20T15:58:53;14.00;83.60
1700;DHT22;847;48.058;7.810;2022-12-20T16:01:22;13.90;84.10
1700;DHT22;847;48.058;7.810;2022-12-20T16:03:50;14.00;83.70
1700;DHT22;847;48.058;7.810;2022-12-20T16:06:17;14.10;83.50
1700;DHT22;847;48.058;7.810;2022-12-20T16:08:44;14.00;82.90
1700;DHT22;847;48.058;7.810;2022-12-20T16:11:19;14.00;83.20
1700;DHT22;847;48.058;7.810;2022-12-20T16:13:46;13.90;82.90
1700;DHT22;847;48.058;7.810;2022-12-20T16:16:17;13.80;83.10
1700;DHT22;847;48.058;7.810;2022-12-20T16:18:44;13.70;83.10
1700;DHT22;847;48.058;7.810;2022-12-20T16:21:15;13.80;84.60
1700;DHT22;847;48.058;7.810;2022-12-20T16:23:43;13.90;84.70
1700;DHT22;847;48.058;7.810;2022-12-20T16:26:12;13.90;84.90
1700;DHT22;847;48.058;7.810;2022-12-20T16:28:39;14.00;84.30
1700;DHT22;847;48.058;7.810;2022-12-20T16:31:10;14.00;83.60
1700;DHT22;847;48.058;7.810;2022-12-20T16:33:38;13.90;83.30
1700;DHT22;847;48.058;7.810;2022-12-20T16:36:07;13.80;84.50
1700;DHT22;847;48.058;7.810;2022-12-20T16:38:35;13.80;85.30
1700;DHT22;847;48.058;7.810;2022-12-20T16:41:10;13.80;85.60
1700;DHT22;847;48.058;7.810;2022-12-20T16:43:38;13.90;86.10
1700;DHT22;847;48.058;7.810;2022-12-20T16:46:05;13.90;85.00
1700;DHT22;847;48.058;7.810;2022-12-20T16:48:31;13.80;86.10
1700;DHT22;847;48.058;7.810;2022-12-20T16:51:00;13.60;85.80
1700;DHT22;847;48.058;7.810;2022-12-20T16:53:27;13.70;85.70
1700;DHT22;847;48.058;7.810;2022-12-20T16:55:53;13.60;85.60
1700;DHT22;847;48.058;7.810;2022-12-20T16:58:20;13.40;86.70
1700;DHT22;847;48.058;7.810;2022-12-20T17:00:47;13.20;87.30
1700;DHT22;847;48.058;7.810;2022-12-20T17:03:15;13.10;88.30
1700;DHT22;847;48.058;7.810;2022-12-20T17:05:42;13.40;87.70
1700;DHT22;847;48.058;7.810;2022-12-20T17:08:10;13.20;87.30
1700;DHT22;847;48.058;7.810;2022-12-20T17:10:37;13.10;88.20
1700;DHT22;847;48.058;7.810;2022-12-20T17:13:04;13.00;87.50
1700;DHT22;847;48.058;7.810;2022-12-20T17:15:31;12.90;88.10